Schneifelwetter: Wetterstation Hallschlag, 537 m . NN
Wetterdaten: Dienstag, 24.03.2009
Datum Zeit Temp. A. Temp. 2 Feuchte A. Luftdruck Regen Wind Richtung Richtung Sonnenschein Helligkeit T Regen Taupunkt Windchill
24.03.2009 00:01 -0,2 C -0,9 C 93 % 1003 hPa 0,0 l/m 26,9 km/h (4 Bft) W22.5 260 0 min 0 lux 0,00 min -1,2 C -12,7 C
24.03.2009 00:16 0,0 C -0,6 C 93 % 1003 hPa 0,0 l/m 22,1 km/h (4 Bft) W 260 0 min 0 lux 0,00 min -1,0 C -10,6 C
24.03.2009 00:31 0,2 C -0,5 C 93 % 1003 hPa 0,0 l/m 29,6 km/h (5 Bft) W 260 0 min 0 lux 0,00 min -0,8 C -13,0 C
24.03.2009 00:46 0,1 C -0,6 C 93 % 1003 hPa 0,0 l/m 30,5 km/h (5 Bft) W 260 0 min 0 lux 0,00 min -0,9 C -13,4 C
24.03.2009 01:01 0,0 C -0,5 C 94 % 1003 hPa 0,0 l/m 25,6 km/h (4 Bft) W 260 0 min 0 lux 0,00 min -0,8 C -11,9 C
24.03.2009 01:16 0,0 C -0,5 C 94 % 1003 hPa 0,0 l/m 29,6 km/h (5 Bft) W 260 0 min 0 lux 0,00 min -0,8 C -13,3 C
24.03.2009 01:31 0,2 C -0,3 C 95 % 1003 hPa 0,0 l/m 33,9 km/h (5 Bft) W 260 0 min 0 lux 0,00 min -0,5 C -14,2 C
24.03.2009 01:46 0,1 C -0,4 C 94 % 1003 hPa 4,5 l/m 39,2 km/h (6 Bft) W 260 0 min 0 lux 15,00 min -0,7 C -15,6 C
24.03.2009 02:01 0,0 C -0,5 C 94 % 1002 hPa 0,3 l/m 29,9 km/h (5 Bft) W 260 0 min 0 lux 15,00 min -0,8 C -13,4 C
24.03.2009 02:16 0,1 C -0,3 C 95 % 1002 hPa 0,0 l/m 31,9 km/h (5 Bft) W22.5 260 0 min 0 lux 0,00 min -0,6 C -13,8 C
24.03.2009 02:31 0,2 C -0,1 C 95 % 1002 hPa 0,0 l/m 38,1 km/h (5 Bft) W22.5 265 0 min 0 lux 0,00 min -0,5 C -15,2 C
24.03.2009 02:46 0,4 C 0,0 C 95 % 1002 hPa 0,0 l/m 37,3 km/h (5 Bft) W22.5 260 0 min 0 lux 0,00 min -0,3 C -14,8 C
24.03.2009 03:01 0,3 C 0,0 C 95 % 1002 hPa 0,0 l/m 34,0 km/h (5 Bft) W45 260 0 min 0 lux 0,00 min -0,4 C -14,1 C
24.03.2009 03:16 0,1 C 0,0 C 97 % 1002 hPa 0,0 l/m 23,5 km/h (4 Bft) W45 260 0 min 0 lux 0,00 min -0,3 C -11,0 C
24.03.2009 03:31 -0,2 C 0,0 C 96 % 1002 hPa 0,0 l/m 28,3 km/h (4 Bft) W45 275 0 min 0 lux 0,00 min -0,8 C -13,1 C
24.03.2009 03:46 -0,3 C -0,2 C 95 % 1002 hPa 0,0 l/m 34,9 km/h (5 Bft) W45 275 0 min 0 lux 0,00 min -1,0 C -15,2 C
24.03.2009 04:01 -0,3 C -0,3 C 94 % 1002 hPa 0,0 l/m 27,3 km/h (4 Bft) W45 275 0 min 0 lux 0,00 min -1,1 C -13,0 C
24.03.2009 04:16 -0,5 C -0,4 C 95 % 1003 hPa 0,0 l/m 22,1 km/h (4 Bft) W45 260 0 min 0 lux 0,00 min -1,2 C -11,2 C
24.03.2009 04:31 -0,6 C -0,5 C 96 % 1003 hPa 0,0 l/m 19,0 km/h (3 Bft) W22.5 270 0 min 0 lux 0,00 min -1,2 C -9,9 C
24.03.2009 04:46 -0,6 C -0,6 C 96 % 1003 hPa 0,0 l/m 24,0 km/h (4 Bft) W22.5 260 0 min 0 lux 0,00 min -1,2 C -12,1 C
24.03.2009 05:01 -0,6 C -0,6 C 95 % 1003 hPa 0,0 l/m 25,5 km/h (4 Bft) W45 270 0 min 0 lux 0,00 min -1,3 C -12,7 C
24.03.2009 05:17 -0,6 C -0,7 C 95 % 1003 hPa 0,0 l/m 21,1 km/h (4 Bft) W45 280 0 min 0 lux 0,00 min -1,3 C -10,9 C
24.03.2009 05:32 -0,6 C -0,8 C 95 % 1003 hPa 0,0 l/m 19,8 km/h (3 Bft) W45 280 0 min 0 lux 0,00 min -1,3 C -10,3 C
24.03.2009 05:47 -0,7 C -0,8 C 95 % 1003 hPa 0,0 l/m 15,7 km/h (3 Bft) W22.5 270 0 min 0 lux 0,00 min -1,4 C -8,3 C
24.03.2009 06:02 -0,7 C -0,9 C 94 % 1003 hPa 0,0 l/m 24,5 km/h (4 Bft) W45 270 0 min 0 lux 0,00 min -1,5 C -12,5 C
24.03.2009 06:17 -0,7 C -1,1 C 93 % 1004 hPa 0,0 l/m 22,1 km/h (4 Bft) W22.5 280 0 min 53 lux 0,00 min -1,7 C -11,5 C
24.03.2009 06:32 -0,9 C -1,1 C 93 % 1004 hPa 0,0 l/m 16,4 km/h (3 Bft) W45 275 0 min 370 lux 0,00 min -1,9 C -8,9 C
24.03.2009 06:47 -0,8 C -1,0 C 94 % 1004 hPa 0,0 l/m 20,0 km/h (4 Bft) W22.5 270 0 min 839 lux 0,00 min -1,6 C -10,7 C
24.03.2009 07:02 -0,6 C -1,0 C 95 % 1004 hPa 0,0 l/m 17,0 km/h (3 Bft) W45 270 0 min 3,20 klux 0,00 min -1,3 C -8,9 C
24.03.2009 07:17 -0,6 C -0,7 C 95 % 1004 hPa 0,0 l/m 12,4 km/h (3 Bft) W22.5 270 0 min 2,16 klux 0,00 min -1,3 C -6,0 C
24.03.2009 07:32 -0,5 C -0,6 C 95 % 1004 hPa 0,0 l/m 28,8 km/h (4 Bft) W45 270 0 min 4,36 klux 0,00 min -1,2 C -13,7 C
24.03.2009 07:47 -0,5 C -0,6 C 94 % 1004 hPa 0,0 l/m 19,1 km/h (3 Bft) W45 280 0 min 5,18 klux 0,00 min -1,3 C -9,8 C
24.03.2009 08:01 -0,2 C -0,5 C 93 % 1005 hPa 0,0 l/m 18,8 km/h (3 Bft) W22.5 275 0 min 12,0 klux 0,00 min -1,2 C -9,3 C
24.03.2009 08:16 0,1 C -0,3 C 93 % 1005 hPa 0,0 l/m 11,6 km/h (2 Bft) W22.5 260 0 min 13,9 klux 0,00 min -0,9 C -4,6 C
24.03.2009 08:31 0,2 C -0,1 C 92 % 1005 hPa 0,0 l/m 12,6 km/h (3 Bft) W45 265 0 min 10,8 klux 0,00 min -0,9 C -5,2 C
24.03.2009 08:46 0,3 C 0,1 C 92 % 1005 hPa 0,9 l/m 17,3 km/h (3 Bft) W45 265 0 min 18,5 klux 15,00 min -0,8 C -7,9 C
24.03.2009 09:02 0,8 C 0,2 C 92 % 1005 hPa 0,6 l/m 15,7 km/h (3 Bft) W22.5 270 0 min 27,2 klux 16,00 min -0,3 C -6,4 C
24.03.2009 09:16 1,6 C 0,5 C 90 % 1005 hPa 0,6 l/m 10,3 km/h (2 Bft) W-SW 250 0 min 31,3 klux 14,00 min 0,1 C -1,9 C
24.03.2009 09:31 1,9 C 0,6 C 90 % 1005 hPa 1,5 l/m 9,8 km/h (2 Bft) W 260 0 min 26,1 klux 15,00 min 0,4 C -1,2 C
24.03.2009 09:46 2,5 C 0,9 C 90 % 1006 hPa 1,2 l/m 0,0 km/h (0 Bft) W 260 0 min 30,6 klux 15,00 min 1,0 C 2,5 C
24.03.2009 10:01 2,8 C 1,0 C 89 % 1006 hPa 0,9 l/m 0,0 km/h (0 Bft) W 260 0 min 37,5 klux 15,00 min 1,2 C 2,8 C
24.03.2009 10:16 3,1 C 1,8 C 86 % 1006 hPa 0,9 l/m 1,5 km/h (1 Bft) W22.5 260 0 min 41,4 klux 15,00 min 1,0 C 3,1 C
24.03.2009 10:31 3,3 C 2,4 C 86 % 1006 hPa 0,6 l/m 16,5 km/h (3 Bft) W-SW22.5 255 0 min 40,6 klux 15,00 min 1,2 C -3,8 C
24.03.2009 10:47 3,3 C 2,7 C 85 % 1006 hPa 0,0 l/m 14,9 km/h (3 Bft) W22.5 260 0 min 41,1 klux 0,00 min 1,0 C -2,9 C
24.03.2009 11:01 2,9 C 2,7 C 84 % 1006 hPa 0,0 l/m 18,1 km/h (3 Bft) W22.5 270 14 min 51,4 klux 0,00 min 0,5 C -5,0 C
24.03.2009 11:16 3,3 C 3,3 C 84 % 1007 hPa 0,0 l/m 19,4 km/h (3 Bft) W22.5 260 15 min 50,3 klux 0,00 min 0,9 C -5,1 C
24.03.2009 11:31 3,4 C 4,4 C 83 % 1007 hPa 0,0 l/m 15,8 km/h (3 Bft) W45 280 15 min 66,6 klux 0,00 min 0,8 C -3,3 C
24.03.2009 11:46 3,8 C 5,4 C 81 % 1007 hPa 0,0 l/m 25,1 km/h (4 Bft) W-NW45 285 15 min 110 klux 0,00 min 0,8 C -6,6 C
24.03.2009 12:01 3,6 C 5,5 C 81 % 1007 hPa 0,0 l/m 24,6 km/h (4 Bft) W45 270 15 min 59,4 klux 0,00 min 0,7 C -6,7 C
24.03.2009 12:16 3,8 C 5,8 C 80 % 1007 hPa 0,0 l/m 17,6 km/h (3 Bft) W22.5 280 15 min 49,4 klux 0,00 min 0,7 C -3,7 C
24.03.2009 12:32 3,5 C 5,5 C 80 % 1007 hPa 0,0 l/m 18,5 km/h (3 Bft) W22.5 275 0 min 41,6 klux 0,00 min 0,4 C -4,5 C
24.03.2009 12:47 4,2 C 5,8 C 81 % 1007 hPa 0,0 l/m 18,0 km/h (3 Bft) W22.5 260 15 min 56,5 klux 0,00 min 1,2 C -3,4 C
24.03.2009 13:01 4,2 C 6,0 C 79 % 1007 hPa 0,0 l/m 23,8 km/h (4 Bft) W45 270 14 min 100 klux 0,00 min 0,9 C -5,6 C
24.03.2009 13:16 4,2 C 5,8 C 77 % 1007 hPa 0,0 l/m 34,1 km/h (5 Bft) W45 280 15 min 113 klux 0,00 min 0,5 C -8,5 C
24.03.2009 13:31 4,0 C 6,2 C 80 % 1007 hPa 0,0 l/m 28,5 km/h (4 Bft) W22.5 275 15 min 112 klux 0,00 min 0,9 C -7,4 C
24.03.2009 13:46 3,9 C 5,8 C 79 % 1007 hPa 0,0 l/m 29,0 km/h (5 Bft) W-NW45 290 15 min 84,1 klux 0,00 min 0,6 C -7,6 C
24.03.2009 14:01 3,8 C 5,5 C 78 % 1007 hPa 0,0 l/m 24,8 km/h (4 Bft) W45 280 15 min 54,3 klux 0,00 min 0,3 C -6,5 C
24.03.2009 14:16 3,9 C 5,1 C 79 % 1007 hPa 0,0 l/m 24,3 km/h (4 Bft) W45 275 0 min 40,8 klux 0,00 min 0,6 C -6,2 C
24.03.2009 14:32 3,5 C 4,4 C 78 % 1007 hPa 0,0 l/m 29,3 km/h (5 Bft) W-NW45 285 0 min 25,8 klux 0,00 min 0,0 C -8,3 C
24.03.2009 14:46 2,8 C 3,8 C 82 % 1008 hPa 0,0 l/m 15,4 km/h (3 Bft) W-NW22.5 285 0 min 11,9 klux 0,00 min 0,0 C -3,8 C
24.03.2009 15:01 2,7 C 3,2 C 83 % 1008 hPa 0,0 l/m 33,6 km/h (5 Bft) W67.5 280 0 min 44,4 klux 0,00 min 0,1 C -10,5 C
24.03.2009 15:16 3,0 C 3,5 C 84 % 1008 hPa 0,0 l/m 27,3 km/h (4 Bft) W45 280 0 min 33,9 klux 0,00 min 0,6 C -8,4 C
24.03.2009 15:31 2,9 C 3,3 C 84 % 1008 hPa 0,0 l/m 19,9 km/h (4 Bft) W45 280 0 min 21,3 klux 0,00 min 0,5 C -5,8 C
24.03.2009 15:46 2,9 C 3,0 C 84 % 1008 hPa 0,0 l/m 22,8 km/h (4 Bft) W45 280 0 min 20,0 klux 0,00 min 0,5 C -7,0 C
24.03.2009 16:01 2,4 C 2,5 C 85 % 1008 hPa 0,0 l/m 33,5 km/h (5 Bft) W22.5 270 0 min 12,7 klux 0,00 min 0,1 C -11,0 C
24.03.2009 16:17 2,5 C 2,6 C 86 % 1008 hPa 0,0 l/m 18,8 km/h (3 Bft) W45 275 16 min 49,2 klux 0,00 min 0,4 C -5,9 C
24.03.2009 16:31 2,7 C 3,6 C 85 % 1008 hPa 0,0 l/m 16,7 km/h (3 Bft) W45 270 0 min 28,5 klux 0,00 min 0,4 C -4,6 C
24.03.2009 16:46 2,7 C 3,1 C 84 % 1008 hPa 0,0 l/m 26,8 km/h (4 Bft) W-NW45 290 0 min 18,0 klux 0,00 min 0,3 C -8,7 C
24.03.2009 17:01 3,1 C 5,3 C 82 % 1008 hPa 0,6 l/m 23,9 km/h (4 Bft) W45 280 15 min 49,4 klux 15,00 min 0,3 C -7,1 C
24.03.2009 17:16 3,2 C 5,3 C 80 % 1008 hPa 0,0 l/m 29,3 km/h (5 Bft) W67.5 275 0 min 38,5 klux 0,00 min 0,1 C -8,7 C
24.03.2009 17:31 2,5 C 3,6 C 82 % 1008 hPa 0,0 l/m 28,5 km/h (4 Bft) W22.5 270 0 min 9,0 klux 0,00 min -0,3 C -9,5 C
24.03.2009 17:46 2,2 C 2,8 C 84 % 1008 hPa 0,0 l/m 20,3 km/h (4 Bft) W-NW67.5 285 0 min 8,52 klux 0,00 min -0,2 C -6,9 C
24.03.2009 18:02 2,1 C 2,5 C 85 % 1009 hPa 0,0 l/m 20,0 km/h (4 Bft) W45 275 0 min 8,90 klux 0,00 min -0,2 C -6,9 C
24.03.2009 18:16 1,9 C 2,1 C 84 % 1009 hPa 0,0 l/m 24,0 km/h (4 Bft) W45 275 0 min 6,54 klux 0,00 min -0,5 C -8,8 C
24.03.2009 18:31 1,5 C 1,5 C 84 % 1009 hPa 0,0 l/m 25,1 km/h (4 Bft) W-NW45 295 0 min 2,65 klux 0,00 min -0,9 C -9,7 C
24.03.2009 18:46 1,2 C 1,0 C 85 % 1009 hPa 0,0 l/m 18,1 km/h (3 Bft) W22.5 275 0 min 1,61 klux 0,00 min -1,0 C -7,2 C
24.03.2009 19:01 0,8 C 0,7 C 87 % 1009 hPa 0,0 l/m 14,0 km/h (3 Bft) W-NW45 285 0 min 987 lux 0,00 min -1,1 C -5,4 C
24.03.2009 19:16 0,5 C 0,2 C 88 % 1010 hPa 0,0 l/m 17,2 km/h (3 Bft) W45 260 0 min 228 lux 0,00 min -1,3 C -7,6 C
24.03.2009 19:31 0,2 C -0,1 C 88 % 1010 hPa 0,0 l/m 16,3 km/h (3 Bft) W22.5 280 0 min 30 lux 0,00 min -1,5 C -7,5 C
24.03.2009 19:47 -0,2 C -0,7 C 88 % 1010 hPa 0,0 l/m 12,0 km/h (2 Bft) W 260 0 min 3 lux 0,00 min -1,9 C -5,2 C
24.03.2009 20:01 -0,6 C -1,2 C 89 % 1010 hPa 0,0 l/m 6,9 km/h (2 Bft) W-NW22.5 290 0 min 0 lux 0,00 min -2,2 C -1,1 C
24.03.2009 20:16 -0,8 C -1,6 C 89 % 1010 hPa 0,0 l/m 5,3 km/h (1 Bft) W 270 0 min 0 lux 0,00 min -2,4 C -0,8 C
24.03.2009 20:31 -1,0 C -2,1 C 89 % 1010 hPa 0,0 l/m 4,8 km/h (1 Bft) W 260 0 min 0 lux 0,00 min -2,6 C -1,0 C
24.03.2009 20:46 -1,4 C -2,5 C 89 % 1011 hPa 0,0 l/m 3,8 km/h (1 Bft) W-SW 250 0 min 0 lux 0,00 min -3,0 C -1,4 C
24.03.2009 21:01 -1,7 C -2,9 C 89 % 1011 hPa 0,0 l/m 4,1 km/h (1 Bft) W-SW 250 0 min 0 lux 0,00 min -3,3 C -1,7 C
24.03.2009 21:16 -1,9 C -3,0 C 89 % 1011 hPa 0,0 l/m 5,9 km/h (2 Bft) W 275 0 min 0 lux 0,00 min -3,5 C -1,9 C
24.03.2009 21:32 -2,2 C -3,2 C 89 % 1011 hPa 0,0 l/m 5,2 km/h (1 Bft) W 270 0 min 0 lux 0,00 min -3,8 C -2,2 C
24.03.2009 21:46 -2,4 C -3,5 C 89 % 1011 hPa 0,0 l/m 4,4 km/h (1 Bft) W 270 0 min 0 lux 0,00 min -4,0 C -2,4 C
24.03.2009 22:01 -2,5 C -3,5 C 90 % 1011 hPa 0,0 l/m 5,6 km/h (1 Bft) W 270 0 min 0 lux 0,00 min -3,9 C -2,5 C
24.03.2009 22:16 -2,6 C -3,7 C 91 % 1011 hPa 0,0 l/m 4,3 km/h (1 Bft) W 270 0 min 0 lux 0,00 min -3,9 C -2,6 C
24.03.2009 22:31 -2,6 C -3,9 C 91 % 1010 hPa 0,0 l/m 5,0 km/h (1 Bft) W 265 0 min 0 lux 0,00 min -3,9 C -2,6 C
24.03.2009 22:46 -2,8 C -4,2 C 91 % 1010 hPa 0,0 l/m 1,0 km/h (0 Bft) W 260 0 min 0 lux 0,00 min -4,1 C -2,8 C
24.03.2009 23:01 -3,0 C -4,2 C 91 % 1010 hPa 0,0 l/m 3,7 km/h (1 Bft) W 260 0 min 0 lux 0,00 min -4,3 C -3,0 C
24.03.2009 23:17 -3,0 C -4,1 C 91 % 1010 hPa 0,0 l/m 5,4 km/h (1 Bft) W-SW 255 0 min 0 lux 0,00 min -4,3 C -3,0 C
24.03.2009 23:31 -3,1 C -4,4 C 91 % 1010 hPa 0,0 l/m 1,9 km/h (1 Bft) W-SW 255 0 min 0 lux 0,00 min -4,4 C -3,1 C
24.03.2009 23:46 -3,2 C -4,2 C 92 % 1010 hPa 0,0 l/m 8,1 km/h (2 Bft) SW 225 0 min 0 lux 0,00 min -4,3 C -5,1 C
24.03.2009 23:56 -3,0 C -4,1 C 93 % 1010 hPa 0,0 l/m 14,6 km/h (3 Bft) W-SW 245 0 min 0 lux 0,00 min -4,0 C -10,3 C
_ Min-Zeit 23:46 23:31 13:16 02:01 - 09:46 - - - - - 23:31 01:46
Minimum _ -3,2 C -4,4 C 77 % 1002 hPa - 0,0 km/h (0 Bft) - - - - - -4,4 C -15,6 C
_ Max-Zeit 12:47 13:31 03:16 20:46 01:46 01:46 - - 16:17 13:16 09:02 12:47 10:16
Maximum _ 4,2 C 6,2 C 97 % 1011 hPa 4,5 l/m 39,2 km/h
W (6 Bft)
- - 16 min 113 klux 16,00 min 1,2 C 3,1 C
Durchschnitt _ 0,7 C 0,7 C 89 % 1007 hPa #12,6 l/m 19,2 km/h (3 Bft) W - #3:29 h 17,8 klux #2:45 h -0,9 C -7,3 C